sensor_id;sensor_type;location;lat;lon;timestamp;temperature;humidity
18648;DHT22;9453;50.294;18.644;2023-03-01T05:06:07;-2.50;99.90
18648;DHT22;9453;50.294;18.644;2023-03-01T05:08:40;-2.50;99.90
18648;DHT22;9453;50.294;18.644;2023-03-01T05:11:12;-2.40;99.90
18648;DHT22;9453;50.294;18.644;2023-03-01T05:14:06;-2.50;99.90
18648;DHT22;9453;50.294;18.644;2023-03-01T05:16:33;-2.70;99.90
18648;DHT22;9453;50.294;18.644;2023-03-01T05:19:05;-2.70;99.90
18648;DHT22;9453;50.294;18.644;2023-03-01T05:21:43;-2.60;99.90
18648;DHT22;9453;50.294;18.644;2023-03-01T05:24:35;-2.90;99.90
18648;DHT22;9453;50.294;18.644;2023-03-01T05:27:25;-2.80;99.90
18648;DHT22;9453;50.294;18.644;2023-03-01T05:30:22;-2.70;99.90
18648;DHT22;9453;50.294;18.644;2023-03-01T05:33:05;-2.60;99.90
18648;DHT22;9453;50.294;18.644;2023-03-01T05:35:48;-2.50;99.90
18648;DHT22;9453;50.294;18.644;2023-03-01T05:38:26;-2.40;99.90
18648;DHT22;9453;50.294;18.644;2023-03-01T05:47:52;-2.50;99.90
18648;DHT22;9453;50.294;18.644;2023-03-01T05:50:26;-2.50;99.90
18648;DHT22;9453;50.294;18.644;2023-03-01T05:53:04;-2.40;99.90
18648;DHT22;9453;50.294;18.644;2023-03-01T05:55:45;-2.30;99.90
18648;DHT22;9453;50.294;18.644;2023-03-01T06:01:51;-2.10;99.90
18648;DHT22;9453;50.294;18.644;2023-03-01T06:04:47;-2.10;99.90
18648;DHT22;9453;50.294;18.644;2023-03-01T06:14:12;-1.80;99.90
18648;DHT22;9453;50.294;18.644;2023-03-01T06:17:03;-1.70;99.90
18648;DHT22;9453;50.294;18.644;2023-03-01T06:20:32;-1.70;99.90
18648;DHT22;9453;50.294;18.644;2023-03-01T06:24:41;-1.60;99.90
18648;DHT22;9453;50.294;18.644;2023-03-01T06:26:45;-1.80;99.90
18648;DHT22;9453;50.294;18.644;2023-03-01T06:29:24;-1.80;99.90
18648;DHT22;9453;50.294;18.644;2023-03-01T06:31:58;-2.00;99.90
18648;DHT22;9453;50.294;18.644;2023-03-01T06:34:29;-2.10;99.90
18648;DHT22;9453;50.294;18.644;2023-03-01T06:37:02;-2.00;99.90
18648;DHT22;9453;50.294;18.644;2023-03-01T06:39:40;-2.00;99.90
18648;DHT22;9453;50.294;18.644;2023-03-01T06:43:15;-1.90;99.90
18648;DHT22;9453;50.294;18.644;2023-03-01T06:45:53;-1.70;99.90
18648;DHT22;9453;50.294;18.644;2023-03-01T06:48:25;-1.60;99.90
18648;DHT22;9453;50.294;18.644;2023-03-01T06:51:12;-1.50;99.90
18648;DHT22;9453;50.294;18.644;2023-03-01T06:53:39;-1.50;99.90
18648;DHT22;9453;50.294;18.644;2023-03-01T06:56:15;-1.30;99.90
18648;DHT22;9453;50.294;18.644;2023-03-01T06:59:12;-1.40;99.90
18648;DHT22;9453;50.294;18.644;2023-03-01T07:01:52;-1.20;99.90
18648;DHT22;9453;50.294;18.644;2023-03-01T07:04:32;-1.10;99.90
18648;DHT22;9453;50.294;18.644;2023-03-01T07:07:02;-1.00;99.90
18648;DHT22;9453;50.294;18.644;2023-03-01T07:09:55;-0.90;99.90
18648;DHT22;9453;50.294;18.644;2023-03-01T07:12:36;-0.90;99.90
18648;DHT22;9453;50.294;18.644;2023-03-01T07:15:08;-1.00;99.90
18648;DHT22;9453;50.294;18.644;2023-03-01T07:17:52;-0.90;99.90
18648;DHT22;9453;50.294;18.644;2023-03-01T07:20:20;-0.80;99.90
18648;DHT22;9453;50.294;18.644;2023-03-01T07:22:53;-0.70;99.90
18648;DHT22;9453;50.294;18.644;2023-03-01T07:25:39;-0.50;99.90
18648;DHT22;9453;50.294;18.644;2023-03-01T07:28:20;-0.40;99.90
18648;DHT22;9453;50.294;18.644;2023-03-01T07:30:59;-0.30;99.20
18648;DHT22;9453;50.294;18.644;2023-03-01T07:33:51;-0.10;99.20
18648;DHT22;9453;50.294;18.644;2023-03-01T07:36:45;0.00;98.70
18648;DHT22;9453;50.294;18.644;2023-03-01T07:39:29;0.10;98.50
18648;DHT22;9453;50.294;18.644;2023-03-01T07:42:02;0.20;98.20
18648;DHT22;9453;50.294;18.644;2023-03-01T07:44:36;0.40;98.30
18648;DHT22;9453;50.294;18.644;2023-03-01T07:47:12;0.50;98.20
18648;DHT22;9453;50.294;18.644;2023-03-01T07:49:51;0.70;97.80
18648;DHT22;9453;50.294;18.644;2023-03-01T07:52:34;0.80;97.40
18648;DHT22;9453;50.294;18.644;2023-03-01T07:55:05;0.90;97.10
18648;DHT22;9453;50.294;18.644;2023-03-01T07:57:58;1.00;96.30
18648;DHT22;9453;50.294;18.644;2023-03-01T08:00:37;1.10;96.20
18648;DHT22;9453;50.294;18.644;2023-03-01T08:03:07;1.20;95.60
18648;DHT22;9453;50.294;18.644;2023-03-01T08:05:52;1.30;95.50
18648;DHT22;9453;50.294;18.644;2023-03-01T08:08:21;1.50;94.90
18648;DHT22;9453;50.294;18.644;2023-03-01T08:11:02;1.50;94.50
18648;DHT22;9453;50.294;18.644;2023-03-01T08:13:38;1.60;94.30
18648;DHT22;9453;50.294;18.644;2023-03-01T08:16:10;1.60;93.90
18648;DHT22;9453;50.294;18.644;2023-03-01T08:18:45;1.70;93.60
18648;DHT22;9453;50.294;18.644;2023-03-01T08:21:22;1.70;93.00
18648;DHT22;9453;50.294;18.644;2023-03-01T08:24:11;1.80;92.90
18648;DHT22;9453;50.294;18.644;2023-03-01T08:26:54;1.80;92.00
18648;DHT22;9453;50.294;18.644;2023-03-01T08:29:32;1.90;92.20
18648;DHT22;9453;50.294;18.644;2023-03-01T08:32:24;2.00;92.20
18648;DHT22;9453;50.294;18.644;2023-03-01T08:34:56;2.00;91.90
18648;DHT22;9453;50.294;18.644;2023-03-01T08:37:41;2.10;91.40
18648;DHT22;9453;50.294;18.644;2023-03-01T08:40:12;2.10;91.30
18648;DHT22;9453;50.294;18.644;2023-03-01T08:43:00;2.10;91.30
18648;DHT22;9453;50.294;18.644;2023-03-01T08:46:35;2.20;91.10
18648;DHT22;9453;50.294;18.644;2023-03-01T08:49:21;2.20;90.80
18648;DHT22;9453;50.294;18.644;2023-03-01T08:51:55;2.30;90.60
18648;DHT22;9453;50.294;18.644;2023-03-01T08:57:49;2.60;90.20
18648;DHT22;9453;50.294;18.644;2023-03-01T09:00:22;2.80;88.80
18648;DHT22;9453;50.294;18.644;2023-03-01T09:03:04;3.00;86.00
18648;DHT22;9453;50.294;18.644;2023-03-01T09:05:37;3.10;83.40
18648;DHT22;9453;50.294;18.644;2023-03-01T09:08:08;3.30;81.30
18648;DHT22;9453;50.294;18.644;2023-03-01T09:10:44;3.30;80.40
18648;DHT22;9453;50.294;18.644;2023-03-01T09:13:16;3.40;79.30
18648;DHT22;9453;50.294;18.644;2023-03-01T09:15:43;3.30;79.10
18648;DHT22;9453;50.294;18.644;2023-03-01T09:18:10;3.30;78.00
18648;DHT22;9453;50.294;18.644;2023-03-01T09:20:39;3.40;78.90
18648;DHT22;9453;50.294;18.644;2023-03-01T09:23:22;3.50;78.00
18648;DHT22;9453;50.294;18.644;2023-03-01T09:26:15;3.40;76.60
18648;DHT22;9453;50.294;18.644;2023-03-01T09:28:49;3.50;76.20
18648;DHT22;9453;50.294;18.644;2023-03-01T09:31:31;3.60;76.30
18648;DHT22;9453;50.294;18.644;2023-03-01T09:36:49;3.70;76.20
18648;DHT22;9453;50.294;18.644;2023-03-01T09:39:17;3.80;75.90
18648;DHT22;9453;50.294;18.644;2023-03-01T09:42:03;4.00;76.10
18648;DHT22;9453;50.294;18.644;2023-03-01T09:44:42;4.00;76.30
18648;DHT22;9453;50.294;18.644;2023-03-01T09:47:41;4.20;77.00
18648;DHT22;9453;50.294;18.644;2023-03-01T09:50:12;4.00;77.40
18648;DHT22;9453;50.294;18.644;2023-03-01T09:53:04;3.80;77.00
18648;DHT22;9453;50.294;18.644;2023-03-01T09:55:38;4.00;77.70
18648;DHT22;9453;50.294;18.644;2023-03-01T09:58:36;4.00;77.00
18648;DHT22;9453;50.294;18.644;2023-03-01T10:01:36;4.10;77.20
18648;DHT22;9453;50.294;18.644;2023-03-01T10:04:50;4.30;76.50
18648;DHT22;9453;50.294;18.644;2023-03-01T10:07:31;4.30;76.20
18648;DHT22;9453;50.294;18.644;2023-03-01T10:10:00;4.30;75.60
18648;DHT22;9453;50.294;18.644;2023-03-01T10:12:35;4.30;75.80
18648;DHT22;9453;50.294;18.644;2023-03-01T10:15:13;4.40;75.40
18648;DHT22;9453;50.294;18.644;2023-03-01T10:17:44;4.60;75.20
18648;DHT22;9453;50.294;18.644;2023-03-01T10:20:22;4.70;72.70
18648;DHT22;9453;50.294;18.644;2023-03-01T10:22:52;4.80;73.10
18648;DHT22;9453;50.294;18.644;2023-03-01T10:25:40;4.90;72.90
18648;DHT22;9453;50.294;18.644;2023-03-01T10:28:23;5.00;71.80
18648;DHT22;9453;50.294;18.644;2023-03-01T10:31:03;5.00;71.00
18648;DHT22;9453;50.294;18.644;2023-03-01T10:33:36;5.10;71.20
18648;DHT22;9453;50.294;18.644;2023-03-01T10:36:28;5.20;71.20
18648;DHT22;9453;50.294;18.644;2023-03-01T10:39:09;5.20;70.60
18648;DHT22;9453;50.294;18.644;2023-03-01T10:41:52;5.10;67.90
18648;DHT22;9453;50.294;18.644;2023-03-01T10:44:45;5.10;68.60
18648;DHT22;9453;50.294;18.644;2023-03-01T10:47:48;4.80;69.30
18648;DHT22;9453;50.294;18.644;2023-03-01T10:50:31;4.60;69.50
18648;DHT22;9453;50.294;18.644;2023-03-01T10:53:05;4.60;70.50
18648;DHT22;9453;50.294;18.644;2023-03-01T10:55:46;4.70;70.60
18648;DHT22;9453;50.294;18.644;2023-03-01T10:58:57;4.70;70.70
18648;DHT22;9453;50.294;18.644;2023-03-01T11:01:25;4.70;70.70
18648;DHT22;9453;50.294;18.644;2023-03-01T11:04:12;4.80;70.80
18648;DHT22;9453;50.294;18.644;2023-03-01T11:07:00;4.90;70.80
18648;DHT22;9453;50.294;18.644;2023-03-01T11:09:32;5.00;71.00
18648;DHT22;9453;50.294;18.644;2023-03-01T11:12:11;5.00;70.40
18648;DHT22;9453;50.294;18.644;2023-03-01T11:14:47;5.00;70.20
18648;DHT22;9453;50.294;18.644;2023-03-01T11:17:18;5.20;70.10
18648;DHT22;9453;50.294;18.644;2023-03-01T11:20:06;5.30;70.10
18648;DHT22;9453;50.294;18.644;2023-03-01T11:22:48;5.50;69.80
18648;DHT22;9453;50.294;18.644;2023-03-01T11:25:25;5.40;68.00
18648;DHT22;9453;50.294;18.644;2023-03-01T11:27:53;5.20;67.70
18648;DHT22;9453;50.294;18.644;2023-03-01T11:30:25;5.40;68.70
18648;DHT22;9453;50.294;18.644;2023-03-01T11:33:37;5.40;68.90
18648;DHT22;9453;50.294;18.644;2023-03-01T11:36:16;5.30;69.20
18648;DHT22;9453;50.294;18.644;2023-03-01T11:39:05;5.20;68.60
18648;DHT22;9453;50.294;18.644;2023-03-01T11:41:45;5.20;68.60
18648;DHT22;9453;50.294;18.644;2023-03-01T11:44:24;5.20;68.10
18648;DHT22;9453;50.294;18.644;2023-03-01T11:50:17;5.40;67.00
18648;DHT22;9453;50.294;18.644;2023-03-01T11:53:01;5.40;64.60
18648;DHT22;9453;50.294;18.644;2023-03-01T11:55:48;5.50;65.20
18648;DHT22;9453;50.294;18.644;2023-03-01T11:58:37;5.70;65.00
18648;DHT22;9453;50.294;18.644;2023-03-01T12:01:21;5.80;66.70
18648;DHT22;9453;50.294;18.644;2023-03-01T12:07:24;5.90;64.50
18648;DHT22;9453;50.294;18.644;2023-03-01T12:10:15;5.80;63.00
18648;DHT22;9453;50.294;18.644;2023-03-01T12:13:18;5.70;64.60
18648;DHT22;9453;50.294;18.644;2023-03-01T12:16:09;5.90;64.90
18648;DHT22;9453;50.294;18.644;2023-03-01T12:19:00;6.00;65.30
18648;DHT22;9453;50.294;18.644;2023-03-01T12:21:39;6.00;64.00
18648;DHT22;9453;50.294;18.644;2023-03-01T12:24:30;6.10;64.20
18648;DHT22;9453;50.294;18.644;2023-03-01T12:27:29;6.20;64.20
18648;DHT22;9453;50.294;18.644;2023-03-01T12:30:04;6.10;65.10
18648;DHT22;9453;50.294;18.644;2023-03-01T12:32:46;6.00;64.60
18648;DHT22;9453;50.294;18.644;2023-03-01T12:35:32;5.90;65.10
18648;DHT22;9453;50.294;18.644;2023-03-01T12:38:15;5.90;65.70
18648;DHT22;9453;50.294;18.644;2023-03-01T12:44:01;6.00;65.00
18648;DHT22;9453;50.294;18.644;2023-03-01T12:47:05;6.00;65.20
18648;DHT22;9453;50.294;18.644;2023-03-01T12:49:45;6.10;65.70
18648;DHT22;9453;50.294;18.644;2023-03-01T12:52:21;5.90;64.60
18648;DHT22;9453;50.294;18.644;2023-03-01T12:54:54;5.90;66.00
18648;DHT22;9453;50.294;18.644;2023-03-01T12:57:30;5.90;65.50
18648;DHT22;9453;50.294;18.644;2023-03-01T13:00:22;5.90;65.10
18648;DHT22;9453;50.294;18.644;2023-03-01T13:03:02;5.90;65.60
18648;DHT22;9453;50.294;18.644;2023-03-01T13:05:45;6.00;65.80
18648;DHT22;9453;50.294;18.644;2023-03-01T13:08:19;6.10;65.50
18648;DHT22;9453;50.294;18.644;2023-03-01T13:10:49;6.00;64.60
18648;DHT22;9453;50.294;18.644;2023-03-01T13:13:26;6.10;65.70
18648;DHT22;9453;50.294;18.644;2023-03-01T13:16:38;6.10;65.20
18648;DHT22;9453;50.294;18.644;2023-03-01T13:19:21;6.10;64.40
18648;DHT22;9453;50.294;18.644;2023-03-01T13:22:32;6.10;64.00
18648;DHT22;9453;50.294;18.644;2023-03-01T13:25:13;6.20;64.10
18648;DHT22;9453;50.294;18.644;2023-03-01T13:30:55;6.40;63.90
18648;DHT22;9453;50.294;18.644;2023-03-01T13:33:57;6.40;63.30
18648;DHT22;9453;50.294;18.644;2023-03-01T13:36:45;6.40;62.90
18648;DHT22;9453;50.294;18.644;2023-03-01T13:39:31;6.40;62.50
18648;DHT22;9453;50.294;18.644;2023-03-01T13:42:01;6.40;62.10
18648;DHT22;9453;50.294;18.644;2023-03-01T13:44:32;6.40;61.70
18648;DHT22;9453;50.294;18.644;2023-03-01T13:47:08;6.50;63.20
18648;DHT22;9453;50.294;18.644;2023-03-01T13:49:47;6.50;61.70
18648;DHT22;9453;50.294;18.644;2023-03-01T13:52:35;6.60;62.30
18648;DHT22;9453;50.294;18.644;2023-03-01T13:55:14;6.60;61.50
18648;DHT22;9453;50.294;18.644;2023-03-01T13:57:45;6.50;61.40
18648;DHT22;9453;50.294;18.644;2023-03-01T14:00:34;6.50;61.60
18648;DHT22;9453;50.294;18.644;2023-03-01T14:03:12;6.50;62.00
18648;DHT22;9453;50.294;18.644;2023-03-01T14:05:43;6.50;62.60
18648;DHT22;9453;50.294;18.644;2023-03-01T14:08:22;6.50;60.80
18648;DHT22;9453;50.294;18.644;2023-03-01T14:11:20;6.60;61.20
18648;DHT22;9453;50.294;18.644;2023-03-01T14:13:59;6.70;61.20
18648;DHT22;9453;50.294;18.644;2023-03-01T14:16:40;6.70;59.90
18648;DHT22;9453;50.294;18.644;2023-03-01T14:19:15;6.80;60.70
18648;DHT22;9453;50.294;18.644;2023-03-01T14:21:45;6.80;59.80
18648;DHT22;9453;50.294;18.644;2023-03-01T14:24:18;6.80;59.60
18648;DHT22;9453;50.294;18.644;2023-03-01T14:26:45;6.80;59.50
18648;DHT22;9453;50.294;18.644;2023-03-01T14:29:26;6.90;60.40
18648;DHT22;9453;50.294;18.644;2023-03-01T14:31:53;6.90;59.00
18648;DHT22;9453;50.294;18.644;2023-03-01T14:34:22;7.00;58.90
18648;DHT22;9453;50.294;18.644;2023-03-01T14:36:50;6.90;58.10
18648;DHT22;9453;50.294;18.644;2023-03-01T14:39:19;6.90;57.20
18648;DHT22;9453;50.294;18.644;2023-03-01T14:41:47;6.90;57.60
18648;DHT22;9453;50.294;18.644;2023-03-01T14:44:19;6.90;57.10
18648;DHT22;9453;50.294;18.644;2023-03-01T14:46:52;7.00;57.10
18648;DHT22;9453;50.294;18.644;2023-03-01T14:49:23;7.10;56.30
18648;DHT22;9453;50.294;18.644;2023-03-01T14:51:56;7.10;56.20
18648;DHT22;9453;50.294;18.644;2023-03-01T14:54:27;7.10;56.40
18648;DHT22;9453;50.294;18.644;2023-03-01T14:57:00;7.10;54.90
18648;DHT22;9453;50.294;18.644;2023-03-01T14:59:28;7.20;54.20
18648;DHT22;9453;50.294;18.644;2023-03-01T15:01:56;7.20;53.90
18648;DHT22;9453;50.294;18.644;2023-03-01T15:04:24;7.10;54.00
18648;DHT22;9453;50.294;18.644;2023-03-01T15:06:55;7.10;52.90
18648;DHT22;9453;50.294;18.644;2023-03-01T15:09:33;7.10;52.10
18648;DHT22;9453;50.294;18.644;2023-03-01T15:12:00;7.00;51.20
18648;DHT22;9453;50.294;18.644;2023-03-01T15:14:40;6.90;50.50
18648;DHT22;9453;50.294;18.644;2023-03-01T15:17:23;6.90;50.60
18648;DHT22;9453;50.294;18.644;2023-03-01T15:19:54;6.80;51.10
18648;DHT22;9453;50.294;18.644;2023-03-01T15:22:24;6.80;50.50
18648;DHT22;9453;50.294;18.644;2023-03-01T15:24:52;6.70;50.40
18648;DHT22;9453;50.294;18.644;2023-03-01T15:27:22;6.70;50.70
18648;DHT22;9453;50.294;18.644;2023-03-01T15:29:52;6.60;50.60
18648;DHT22;9453;50.294;18.644;2023-03-01T15:32:28;6.50;50.30
18648;DHT22;9453;50.294;18.644;2023-03-01T15:34:56;6.50;50.50
18648;DHT22;9453;50.294;18.644;2023-03-01T15:37:39;6.50;51.40
18648;DHT22;9453;50.294;18.644;2023-03-01T15:40:19;6.40;50.90
18648;DHT22;9453;50.294;18.644;2023-03-01T15:42:46;6.30;51.00
18648;DHT22;9453;50.294;18.644;2023-03-01T15:45:22;6.20;50.80
18648;DHT22;9453;50.294;18.644;2023-03-01T15:47:52;6.20;51.00
18648;DHT22;9453;50.294;18.644;2023-03-01T15:50:22;6.10;51.70
18648;DHT22;9453;50.294;18.644;2023-03-01T15:52:51;6.00;51.60
18648;DHT22;9453;50.294;18.644;2023-03-01T15:55:20;6.00;51.70
18648;DHT22;9453;50.294;18.644;2023-03-01T15:57:48;5.90;51.10
18648;DHT22;9453;50.294;18.644;2023-03-01T16:00:17;5.90;51.60
18648;DHT22;9453;50.294;18.644;2023-03-01T16:02:45;5.80;51.60
18648;DHT22;9453;50.294;18.644;2023-03-01T16:05:19;5.70;52.00
18648;DHT22;9453;50.294;18.644;2023-03-01T16:07:46;5.70;51.50
18648;DHT22;9453;50.294;18.644;2023-03-01T16:10:15;5.60;51.80
18648;DHT22;9453;50.294;18.644;2023-03-01T16:12:42;5.50;52.00
18648;DHT22;9453;50.294;18.644;2023-03-01T16:15:15;5.50;52.40
18648;DHT22;9453;50.294;18.644;2023-03-01T16:17:44;5.40;52.90
18648;DHT22;9453;50.294;18.644;2023-03-01T16:20:11;5.40;53.00
18648;DHT22;9453;50.294;18.644;2023-03-01T16:22:41;5.30;53.20
18648;DHT22;9453;50.294;18.644;2023-03-01T16:25:09;5.20;53.50
18648;DHT22;9453;50.294;18.644;2023-03-01T16:27:38;5.20;53.90
18648;DHT22;9453;50.294;18.644;2023-03-01T16:30:06;5.10;54.10
18648;DHT22;9453;50.294;18.644;2023-03-01T16:32:37;5.00;54.30
18648;DHT22;9453;50.294;18.644;2023-03-01T16:35:05;4.90;54.80
18648;DHT22;9453;50.294;18.644;2023-03-01T16:37:33;4.80;54.50
18648;DHT22;9453;50.294;18.644;2023-03-01T16:40:00;4.80;54.80
18648;DHT22;9453;50.294;18.644;2023-03-01T16:42:28;4.70;54.70
18648;DHT22;9453;50.294;18.644;2023-03-01T16:44:56;4.80;54.80
18648;DHT22;9453;50.294;18.644;2023-03-01T16:47:23;4.60;55.00
18648;DHT22;9453;50.294;18.644;2023-03-01T16:49:51;4.50;55.10
18648;DHT22;9453;50.294;18.644;2023-03-01T16:52:18;4.50;55.60
18648;DHT22;9453;50.294;18.644;2023-03-01T16:54:45;4.40;55.60
18648;DHT22;9453;50.294;18.644;2023-03-01T16:57:12;4.40;55.30
18648;DHT22;9453;50.294;18.644;2023-03-01T16:59:40;4.40;55.30
18648;DHT22;9453;50.294;18.644;2023-03-01T17:02:11;4.30;55.70
18648;DHT22;9453;50.294;18.644;2023-03-01T17:04:38;4.30;55.90
18648;DHT22;9453;50.294;18.644;2023-03-01T17:07:07;4.30;55.90
18648;DHT22;9453;50.294;18.644;2023-03-01T17:09:35;4.20;56.10
18648;DHT22;9453;50.294;18.644;2023-03-01T17:12:02;4.20;56.30
18648;DHT22;9453;50.294;18.644;2023-03-01T17:14:30;4.10;56.60
18648;DHT22;9453;50.294;18.644;2023-03-01T17:16:57;4.10;57.00
18648;DHT22;9453;50.294;18.644;2023-03-01T17:19:25;4.00;57.50
18648;DHT22;9453;50.294;18.644;2023-03-01T17:21:53;4.10;58.20
18648;DHT22;9453;50.294;18.644;2023-03-01T17:24:20;3.90;58.80
18648;DHT22;9453;50.294;18.644;2023-03-01T17:26:47;3.70;59.90
18648;DHT22;9453;50.294;18.644;2023-03-01T17:29:13;3.70;62.80
18648;DHT22;9453;50.294;18.644;2023-03-01T17:31:43;3.70;64.00
18648;DHT22;9453;50.294;18.644;2023-03-01T17:34:10;3.60;64.50
18648;DHT22;9453;50.294;18.644;2023-03-01T17:36:38;3.50;65.10
18648;DHT22;9453;50.294;18.644;2023-03-01T17:39:09;3.40;65.10
18648;DHT22;9453;50.294;18.644;2023-03-01T17:41:35;3.30;65.90
18648;DHT22;9453;50.294;18.644;2023-03-01T17:44:03;3.30;66.60
18648;DHT22;9453;50.294;18.644;2023-03-01T17:46:30;3.20;67.80
18648;DHT22;9453;50.294;18.644;2023-03-01T17:48:57;3.20;68.60
18648;DHT22;9453;50.294;18.644;2023-03-01T17:51:24;3.10;69.10
18648;DHT22;9453;50.294;18.644;2023-03-01T17:53:52;3.10;69.40
18648;DHT22;9453;50.294;18.644;2023-03-01T17:56:19;2.90;69.70
18648;DHT22;9453;50.294;18.644;2023-03-01T17:58:46;3.00;70.20
18648;DHT22;9453;50.294;18.644;2023-03-01T18:01:16;3.00;71.00
18648;DHT22;9453;50.294;18.644;2023-03-01T18:03:44;3.00;71.50
18648;DHT22;9453;50.294;18.644;2023-03-01T18:06:12;2.90;72.50
18648;DHT22;9453;50.294;18.644;2023-03-01T18:08:40;2.80;73.10
18648;DHT22;9453;50.294;18.644;2023-03-01T18:11:08;2.70;74.60
18648;DHT22;9453;50.294;18.644;2023-03-01T18:13:35;2.70;75.60
18648;DHT22;9453;50.294;18.644;2023-03-01T18:16:05;2.60;75.80
18648;DHT22;9453;50.294;18.644;2023-03-01T18:18:32;2.60;76.30
18648;DHT22;9453;50.294;18.644;2023-03-01T18:20:59;2.50;76.40
18648;DHT22;9453;50.294;18.644;2023-03-01T18:23:27;2.50;77.00
18648;DHT22;9453;50.294;18.644;2023-03-01T18:25:57;2.50;77.90
18648;DHT22;9453;50.294;18.644;2023-03-01T18:28:25;2.40;78.10
18648;DHT22;9453;50.294;18.644;2023-03-01T18:30:55;2.30;78.40
18648;DHT22;9453;50.294;18.644;2023-03-01T18:33:22;2.30;79.40
18648;DHT22;9453;50.294;18.644;2023-03-01T18:35:49;2.20;80.10
18648;DHT22;9453;50.294;18.644;2023-03-01T18:38:16;2.10;80.80
18648;DHT22;9453;50.294;18.644;2023-03-01T18:40:43;2.10;81.20
18648;DHT22;9453;50.294;18.644;2023-03-01T18:43:11;2.00;81.90
18648;DHT22;9453;50.294;18.644;2023-03-01T18:45:40;2.00;81.60
18648;DHT22;9453;50.294;18.644;2023-03-01T18:48:09;2.10;81.80
18648;DHT22;9453;50.294;18.644;2023-03-01T18:50:36;2.00;81.00
18648;DHT22;9453;50.294;18.644;2023-03-01T18:53:03;1.90;81.70
18648;DHT22;9453;50.294;18.644;2023-03-01T18:55:33;2.00;80.90
18648;DHT22;9453;50.294;18.644;2023-03-01T18:58:01;1.90;80.70
18648;DHT22;9453;50.294;18.644;2023-03-01T19:00:28;1.90;80.00
18648;DHT22;9453;50.294;18.644;2023-03-01T19:02:57;1.90;80.40
18648;DHT22;9453;50.294;18.644;2023-03-01T19:05:25;1.90;80.00
18648;DHT22;9453;50.294;18.644;2023-03-01T19:07:52;1.80;80.00
18648;DHT22;9453;50.294;18.644;2023-03-01T19:10:20;1.70;79.50
18648;DHT22;9453;50.294;18.644;2023-03-01T19:12:47;1.80;78.60
18648;DHT22;9453;50.294;18.644;2023-03-01T19:15:14;1.80;78.90
18648;DHT22;9453;50.294;18.644;2023-03-01T19:17:41;1.80;78.40
18648;DHT22;9453;50.294;18.644;2023-03-01T19:20:11;1.80;78.00
18648;DHT22;9453;50.294;18.644;2023-03-01T19:22:38;1.80;78.20
18648;DHT22;9453;50.294;18.644;2023-03-01T19:25:06;1.70;78.10
18648;DHT22;9453;50.294;18.644;2023-03-01T19:27:33;1.70;77.70
18648;DHT22;9453;50.294;18.644;2023-03-01T19:30:00;1.70;77.50
18648;DHT22;9453;50.294;18.644;2023-03-01T19:32:27;1.70;77.20
18648;DHT22;9453;50.294;18.644;2023-03-01T19:34:54;1.70;76.70
18648;DHT22;9453;50.294;18.644;2023-03-01T19:37:23;1.60;76.70
18648;DHT22;9453;50.294;18.644;2023-03-01T19:39:50;1.60;76.60
18648;DHT22;9453;50.294;18.644;2023-03-01T19:42:17;1.60;76.80
18648;DHT22;9453;50.294;18.644;2023-03-01T19:44:44;1.60;76.80
18648;DHT22;9453;50.294;18.644;2023-03-01T19:47:11;1.60;76.60
18648;DHT22;9453;50.294;18.644;2023-03-01T19:49:38;1.60;76.50
18648;DHT22;9453;50.294;18.644;2023-03-01T19:52:06;1.60;76.70
18648;DHT22;9453;50.294;18.644;2023-03-01T19:54:35;1.50;77.10
18648;DHT22;9453;50.294;18.644;2023-03-01T19:57:02;1.40;77.60
18648;DHT22;9453;50.294;18.644;2023-03-01T19:59:29;1.30;78.60
18648;DHT22;9453;50.294;18.644;2023-03-01T20:01:56;1.30;78.70
18648;DHT22;9453;50.294;18.644;2023-03-01T20:04:23;1.20;78.90
18648;DHT22;9453;50.294;18.644;2023-03-01T20:06:50;1.20;78.90
18648;DHT22;9453;50.294;18.644;2023-03-01T20:09:17;1.30;78.90
18648;DHT22;9453;50.294;18.644;2023-03-01T20:11:45;1.10;78.90
18648;DHT22;9453;50.294;18.644;2023-03-01T20:14:12;1.00;79.40
18648;DHT22;9453;50.294;18.644;2023-03-01T20:16:39;1.10;79.50
18648;DHT22;9453;50.294;18.644;2023-03-01T20:19:06;1.00;79.80
18648;DHT22;9453;50.294;18.644;2023-03-01T20:21:33;0.90;79.50
18648;DHT22;9453;50.294;18.644;2023-03-01T20:24:01;0.90;79.70
18648;DHT22;9453;50.294;18.644;2023-03-01T20:26:28;0.90;81.90
18648;DHT22;9453;50.294;18.644;2023-03-01T20:28:56;0.80;82.60
18648;DHT22;9453;50.294;18.644;2023-03-01T20:31:24;0.80;82.30
18648;DHT22;9453;50.294;18.644;2023-03-01T20:33:55;0.70;82.00
18648;DHT22;9453;50.294;18.644;2023-03-01T20:36:23;0.60;82.20
18648;DHT22;9453;50.294;18.644;2023-03-01T20:38:51;0.60;83.40
18648;DHT22;9453;50.294;18.644;2023-03-01T20:41:19;0.50;82.70
18648;DHT22;9453;50.294;18.644;2023-03-01T20:43:46;0.40;83.00
18648;DHT22;9453;50.294;18.644;2023-03-01T20:46:21;0.40;83.60
18648;DHT22;9453;50.294;18.644;2023-03-01T20:48:50;0.40;83.70
18648;DHT22;9453;50.294;18.644;2023-03-01T20:51:18;0.40;84.20
18648;DHT22;9453;50.294;18.644;2023-03-01T20:53:45;0.30;84.40
18648;DHT22;9453;50.294;18.644;2023-03-01T20:56:13;0.30;84.70
18648;DHT22;9453;50.294;18.644;2023-03-01T20:58:41;0.30;84.90
18648;DHT22;9453;50.294;18.644;2023-03-01T21:01:10;0.30;84.70
18648;DHT22;9453;50.294;18.644;2023-03-01T21:03:38;0.30;84.80
18648;DHT22;9453;50.294;18.644;2023-03-01T21:06:06;0.30;84.70
18648;DHT22;9453;50.294;18.644;2023-03-01T21:08:33;0.40;84.60
18648;DHT22;9453;50.294;18.644;2023-03-01T21:11:01;0.40;84.50
18648;DHT22;9453;50.294;18.644;2023-03-01T21:13:29;0.30;84.20
18648;DHT22;9453;50.294;18.644;2023-03-01T21:15:59;0.40;84.30
18648;DHT22;9453;50.294;18.644;2023-03-01T21:18:28;0.40;84.60
18648;DHT22;9453;50.294;18.644;2023-03-01T21:20:58;0.40;84.30
18648;DHT22;9453;50.294;18.644;2023-03-01T21:23:27;0.30;84.20
18648;DHT22;9453;50.294;18.644;2023-03-01T21:25:59;0.40;84.70
18648;DHT22;9453;50.294;18.644;2023-03-01T21:28:26;0.20;85.00
18648;DHT22;9453;50.294;18.644;2023-03-01T21:31:02;0.20;85.70
18648;DHT22;9453;50.294;18.644;2023-03-01T21:33:29;0.20;86.10
18648;DHT22;9453;50.294;18.644;2023-03-01T21:36:03;0.00;86.50
18648;DHT22;9453;50.294;18.644;2023-03-01T21:38:30;0.20;87.20
18648;DHT22;9453;50.294;18.644;2023-03-01T21:41:03;0.10;87.10
18648;DHT22;9453;50.294;18.644;2023-03-01T21:43:30;0.00;87.10
18648;DHT22;9453;50.294;18.644;2023-03-01T21:46:00;0.10;87.40
18648;DHT22;9453;50.294;18.644;2023-03-01T21:48:28;0.10;87.80
18648;DHT22;9453;50.294;18.644;2023-03-01T21:50:56;0.00;87.50
18648;DHT22;9453;50.294;18.644;2023-03-01T21:53:25;-0.10;87.90
18648;DHT22;9453;50.294;18.644;2023-03-01T21:55:52;-0.10;88.50
18648;DHT22;9453;50.294;18.644;2023-03-01T21:58:19;-0.20;88.90
18648;DHT22;9453;50.294;18.644;2023-03-01T22:00:47;-0.20;89.20
18648;DHT22;9453;50.294;18.644;2023-03-01T22:03:14;-0.20;89.40
18648;DHT22;9453;50.294;18.644;2023-03-01T22:05:41;-0.20;89.30
18648;DHT22;9453;50.294;18.644;2023-03-01T22:08:08;-0.20;89.30
18648;DHT22;9453;50.294;18.644;2023-03-01T22:10:39;-0.10;90.00
18648;DHT22;9453;50.294;18.644;2023-03-01T22:13:08;-0.10;90.10
18648;DHT22;9453;50.294;18.644;2023-03-01T22:15:39;-0.20;90.10
18648;DHT22;9453;50.294;18.644;2023-03-01T22:18:08;-0.20;90.10